PWSweather.com
Personal Weather Stations
Station Observations
MADWEATHER
MadeiraPT

MadeiraPT

Lat: 32.735, Lon: -17.194

Elevation: 1063

Station Type: Davis VantagePro2

www.mad-weather.com

High Low Average
Temperature 63.4°F17.4°F 55.1°F12.8°F 58.5°F14.7°F
Dew Point 50.5°F10.3°F 39.5°F4.2°F 46.5°F8.1°F
Winds 8.0 mph -12.9 mph - Calm Calm 2.8 mph 4.5 mph
Wind Gusts 12.0 mph19.3 mph -- 4.7 mph7.6 mph
Humidity 74% 54% 65%
Pressure 30.25 in1024.40 in 30.16 in1021.30 in -
Precipitation 0.00 in0.00 in - -
Hour Temp Dew Point Humidity Winds Wind Gusts Pressure Precip Precip Rate Daily Precip Total
12:00 AM 56.6°F13.7°C 44.6°F7.0°C 64% 1.1 mph SE1.8 kmh SE 3.0 mph4.8 kmh 30.19 in1022.4 mb - 0.00 in0.0 mm 0.00 in0.0 mm
12:10 AM 56.6°F13.7°C 44.1°F6.7°C 63% 2.3 mph SE3.7 kmh SE 4.0 mph6.4 kmh 30.19 in1022.4 mb - 0.00 in0.0 mm 0.00 in0.0 mm
12:20 AM 56.5°F13.6°C 44.5°F6.9°C 64% 2.1 mph SE3.4 kmh SE 4.0 mph6.4 kmh 30.19 in1022.4 mb - 0.00 in0.0 mm 0.00 in0.0 mm
12:30 AM 56.2°F13.4°C 45.0°F7.2°C 66% 2.6 mph SE4.2 kmh SE 3.0 mph4.8 kmh 30.18 in1022.0 mb - 0.00 in0.0 mm 0.00 in0.0 mm
12:40 AM 56.3°F13.5°C 45.9°F7.7°C 68% 1.9 mph SE3.1 kmh SE 4.0 mph6.4 kmh 30.18 in1022.0 mb - 0.00 in0.0 mm 0.00 in0.0 mm
12:50 AM 56.3°F13.5°C 45.5°F7.5°C 67% 1.7 mph SE2.7 kmh SE 4.0 mph6.4 kmh 30.18 in1022.0 mb - 0.00 in0.0 mm 0.00 in0.0 mm
01:00 AM 56.0°F13.3°C 41.4°F5.2°C 58% 1.0 mph SE1.6 kmh SE 3.0 mph4.8 kmh 30.17 in1021.7 mb - 0.00 in0.0 mm 0.00 in0.0 mm
01:10 AM 55.9°F13.3°C 39.5°F4.2°C 54% 1.0 mph SE1.6 kmh SE 3.0 mph4.8 kmh 30.18 in1022.0 mb - 0.00 in0.0 mm 0.00 in0.0 mm
01:20 AM 55.8°F13.2°C 41.7°F5.4°C 59% 1.8 mph SE2.9 kmh SE 3.0 mph4.8 kmh 30.18 in1022.0 mb - 0.00 in0.0 mm 0.00 in0.0 mm
01:30 AM 56.0°F13.3°C 43.2°F6.2°C 62% 0.5 mph SE0.8 kmh SE 2.0 mph3.2 kmh 30.18 in1022.0 mb - 0.00 in0.0 mm 0.00 in0.0 mm
01:40 AM 56.1°F13.4°C 44.9°F7.2°C 66% 1.3 mph SE2.1 kmh SE 3.0 mph4.8 kmh 30.18 in1022.0 mb - 0.00 in0.0 mm 0.00 in0.0 mm
01:50 AM 55.8°F13.2°C 44.2°F6.8°C 65% 1.5 mph SE2.4 kmh SE 3.0 mph4.8 kmh 30.18 in1022.0 mb - 0.00 in0.0 mm 0.00 in0.0 mm
02:00 AM 55.7°F13.2°C 45.3°F7.4°C 68% 1.1 mph SE1.8 kmh SE 3.0 mph4.8 kmh 30.18 in1022.0 mb - 0.00 in0.0 mm 0.00 in0.0 mm
02:10 AM 55.7°F13.2°C 43.7°F6.5°C 64% 2.5 mph SE4.0 kmh SE 4.0 mph6.4 kmh 30.18 in1022.0 mb - 0.00 in0.0 mm 0.00 in0.0 mm
02:20 AM 55.6°F13.1°C 43.6°F6.4°C 64% 0.7 mph SE1.1 kmh SE 3.0 mph4.8 kmh 30.18 in1022.0 mb - 0.00 in0.0 mm 0.00 in0.0 mm
02:30 AM 55.7°F13.2°C 44.1°F6.7°C 65% 1.7 mph SE2.7 kmh SE 3.0 mph4.8 kmh 30.18 in1022.0 mb - 0.00 in0.0 mm 0.00 in0.0 mm
02:40 AM 55.7°F13.2°C 44.1°F6.7°C 65% 0.6 mph SE1.0 kmh SE 2.0 mph3.2 kmh 30.17 in1021.7 mb - 0.00 in0.0 mm 0.00 in0.0 mm
02:50 AM 56.0°F13.3°C 44.8°F7.1°C 66% 1.3 mph SE2.1 kmh SE 2.0 mph3.2 kmh 30.17 in1021.7 mb - 0.00 in0.0 mm 0.00 in0.0 mm
03:00 AM 56.0°F13.3°C 44.0°F6.7°C 64% 1.3 mph SE2.1 kmh SE 3.0 mph4.8 kmh 30.17 in1021.7 mb - 0.00 in0.0 mm 0.00 in0.0 mm
03:10 AM 56.0°F13.3°C 44.4°F6.9°C 65% 1.6 mph SE2.6 kmh SE 4.0 mph6.4 kmh 30.18 in1022.0 mb - 0.00 in0.0 mm 0.00 in0.0 mm
03:20 AM 56.0°F13.3°C 44.4°F6.9°C 65% 3.1 mph SE5.0 kmh SE 5.0 mph8.0 kmh 30.18 in1022.0 mb - 0.00 in0.0 mm 0.00 in0.0 mm
03:30 AM 55.9°F13.3°C 44.3°F6.8°C 65% 2.7 mph SE4.3 kmh SE 5.0 mph8.0 kmh 30.18 in1022.0 mb - 0.00 in0.0 mm 0.00 in0.0 mm
03:40 AM 55.6°F13.1°C 44.0°F6.7°C 65% 3.2 mph SE5.1 kmh SE 5.0 mph8.0 kmh 30.18 in1022.0 mb - 0.00 in0.0 mm 0.00 in0.0 mm
03:50 AM 55.7°F13.2°C 44.1°F6.7°C 65% 1.1 mph SE1.8 kmh SE 3.0 mph4.8 kmh 30.18 in1022.0 mb - 0.00 in0.0 mm 0.00 in0.0 mm
04:00 AM 55.8°F13.2°C 43.8°F6.6°C 64% 0.5 mph SE0.8 kmh SE 2.0 mph3.2 kmh 30.18 in1022.0 mb - 0.00 in0.0 mm 0.00 in0.0 mm
04:10 AM 55.7°F13.2°C 44.1°F6.7°C 65% 1.0 mph SE1.6 kmh SE 3.0 mph4.8 kmh 30.18 in1022.0 mb - 0.00 in0.0 mm 0.00 in0.0 mm
04:20 AM 55.1°F12.8°C 42.3°F5.7°C 62% 3.4 mph SE5.5 kmh SE 6.0 mph9.7 kmh 30.18 in1022.0 mb - 0.00 in0.0 mm 0.00 in0.0 mm
04:30 AM 55.2°F12.9°C 42.4°F5.8°C 62% 1.7 mph SE2.7 kmh SE 4.0 mph6.4 kmh 30.18 in1022.0 mb - 0.00 in0.0 mm 0.00 in0.0 mm
04:40 AM 55.4°F13.0°C 43.8°F6.6°C 65% 1.3 mph SE2.1 kmh SE 5.0 mph8.0 kmh 30.18 in1022.0 mb - 0.00 in0.0 mm 0.00 in0.0 mm
04:50 AM 55.4°F13.0°C 43.8°F6.6°C 65% 1.2 mph SE1.9 kmh SE 4.0 mph6.4 kmh 30.17 in1021.7 mb - 0.00 in0.0 mm 0.00 in0.0 mm
05:00 AM 55.4°F13.0°C 45.0°F7.2°C 68% 0.8 mph SE1.3 kmh SE 4.0 mph6.4 kmh 30.17 in1021.7 mb - 0.00 in0.0 mm 0.00 in0.0 mm
05:10 AM 55.3°F12.9°C 44.1°F6.7°C 66% 1.5 mph SE2.4 kmh SE 4.0 mph6.4 kmh 30.17 in1021.7 mb - 0.00 in0.0 mm 0.00 in0.0 mm
05:20 AM 55.2°F12.9°C 44.0°F6.7°C 66% 1.3 mph SE2.1 kmh SE 3.0 mph4.8 kmh 30.17 in1021.7 mb - 0.00 in0.0 mm 0.00 in0.0 mm
05:30 AM 55.3°F12.9°C 44.9°F7.2°C 68% 0.5 mph SE0.8 kmh SE 4.0 mph6.4 kmh 30.16 in1021.3 mb - 0.00 in0.0 mm 0.00 in0.0 mm
05:40 AM 55.4°F13.0°C 45.0°F7.2°C 68% 2.0 mph ESE3.2 kmh ESE 5.0 mph8.0 kmh 30.16 in1021.3 mb - 0.00 in0.0 mm 0.00 in0.0 mm
05:52 AM 55.3°F12.9°C 44.2°F6.8°C 66% 3.0 mph ESE4.8 kmh ESE 5.0 mph8.0 kmh 30.16 in1021.3 mb - 0.00 in0.0 mm 0.00 in0.0 mm
06:20 AM 55.3°F12.9°C 46.1°F7.8°C 71% 0.5 mph ESE0.8 kmh ESE 2.0 mph3.2 kmh 30.16 in1021.3 mb - 0.00 in0.0 mm 0.00 in0.0 mm
06:30 AM 55.5°F13.1°C 46.3°F7.9°C 71% 1.0 mph ESE1.6 kmh ESE 2.0 mph3.2 kmh 30.16 in1021.3 mb - 0.00 in0.0 mm 0.00 in0.0 mm
06:40 AM 55.4°F13.0°C 46.2°F7.9°C 71% 0.7 mph ESE1.1 kmh ESE 3.0 mph4.8 kmh 30.16 in1021.3 mb - 0.00 in0.0 mm 0.00 in0.0 mm
06:50 AM 55.3°F12.9°C 45.7°F7.6°C 70% 1.7 mph ESE2.7 kmh ESE 3.0 mph4.8 kmh 30.17 in1021.7 mb - 0.00 in0.0 mm 0.00 in0.0 mm
07:00 AM 55.2°F12.9°C 46.0°F7.8°C 71% 0.6 mph ESE1.0 kmh ESE 3.0 mph4.8 kmh 30.18 in1022.0 mb - 0.00 in0.0 mm 0.00 in0.0 mm
07:10 AM 55.3°F12.9°C 46.4°F8.0°C 72% 2.7 mph ESE4.3 kmh ESE 5.0 mph8.0 kmh 30.18 in1022.0 mb - 0.00 in0.0 mm 0.00 in0.0 mm
07:20 AM 55.2°F12.9°C 46.3°F7.9°C 72% 1.8 mph ESE2.9 kmh ESE 2.0 mph3.2 kmh 30.18 in1022.0 mb - 0.00 in0.0 mm 0.00 in0.0 mm
07:30 AM 55.1°F12.8°C 46.6°F8.1°C 73% 2.2 mph ESE3.5 kmh ESE 3.0 mph4.8 kmh 30.18 in1022.0 mb - 0.00 in0.0 mm 0.00 in0.0 mm
07:40 AM 55.3°F12.9°C 47.1°F8.4°C 74% Calm Calm -- 30.18 in1022.0 mb - 0.00 in0.0 mm 0.00 in0.0 mm
07:50 AM 55.5°F13.1°C 47.3°F8.5°C 74% 2.2 mph ESE3.5 kmh ESE 4.0 mph6.4 kmh 30.19 in1022.4 mb - 0.00 in0.0 mm 0.00 in0.0 mm
08:00 AM 55.7°F13.2°C 47.5°F8.6°C 74% 0.6 mph ESE1.0 kmh ESE 1.0 mph1.6 kmh 30.19 in1022.4 mb - 0.00 in0.0 mm 0.00 in0.0 mm
08:10 AM 55.9°F13.3°C 47.4°F8.6°C 73% 3.0 mph ESE4.8 kmh ESE 4.0 mph6.4 kmh 30.19 in1022.4 mb - 0.00 in0.0 mm 0.00 in0.0 mm
08:20 AM 55.9°F13.3°C 47.4°F8.6°C 73% 3.5 mph ESE5.6 kmh ESE 4.0 mph6.4 kmh 30.20 in1022.7 mb - 0.00 in0.0 mm 0.00 in0.0 mm
08:30 AM 55.7°F13.2°C 46.8°F8.2°C 72% 3.4 mph ESE5.5 kmh ESE 5.0 mph8.0 kmh 30.19 in1022.4 mb - 0.00 in0.0 mm 0.00 in0.0 mm
08:40 AM 55.5°F13.1°C 46.6°F8.1°C 72% 2.5 mph ESE4.0 kmh ESE 4.0 mph6.4 kmh 30.20 in1022.7 mb - 0.00 in0.0 mm 0.00 in0.0 mm
08:50 AM 56.1°F13.4°C 46.9°F8.3°C 71% 3.1 mph ESE5.0 kmh ESE 4.0 mph6.4 kmh 30.20 in1022.7 mb - 0.00 in0.0 mm 0.00 in0.0 mm
09:00 AM 57.3°F14.1°C 47.2°F8.4°C 69% Calm Calm -- 30.20 in1022.7 mb - 0.00 in0.0 mm 0.00 in0.0 mm
09:10 AM 58.5°F14.7°C 47.6°F8.7°C 67% 0.5 mph ESE0.8 kmh ESE 2.0 mph3.2 kmh 30.21 in1023.0 mb - 0.00 in0.0 mm 0.00 in0.0 mm
09:20 AM 59.3°F15.2°C 47.9°F8.8°C 66% Calm Calm -- 30.21 in1023.0 mb - 0.00 in0.0 mm 0.00 in0.0 mm
09:30 AM 59.9°F15.5°C 48.1°F8.9°C 65% 0.8 mph ESE1.3 kmh ESE 2.0 mph3.2 kmh 30.21 in1023.0 mb - 0.00 in0.0 mm 0.00 in0.0 mm
09:40 AM 60.8°F16.0°C 48.1°F8.9°C 63% Calm Calm -- 30.21 in1023.0 mb - 0.00 in0.0 mm 0.00 in0.0 mm
09:50 AM 60.8°F16.0°C 48.5°F9.2°C 64% Calm Calm -- 30.22 in1023.4 mb - 0.00 in0.0 mm 0.00 in0.0 mm
10:00 AM 59.9°F15.5°C 47.7°F8.7°C 64% 3.2 mph ESE5.1 kmh ESE 5.0 mph8.0 kmh 30.22 in1023.4 mb - 0.00 in0.0 mm 0.00 in0.0 mm
10:10 AM 60.5°F15.8°C 49.0°F9.4°C 66% 1.9 mph ESE3.1 kmh ESE 3.0 mph4.8 kmh 30.23 in1023.7 mb - 0.00 in0.0 mm 0.00 in0.0 mm
10:20 AM 60.6°F15.9°C 48.8°F9.3°C 65% 0.5 mph ESE0.8 kmh ESE 2.0 mph3.2 kmh 30.23 in1023.7 mb - 0.00 in0.0 mm 0.00 in0.0 mm
10:30 AM 60.8°F16.0°C 48.5°F9.2°C 64% 2.4 mph ESE3.9 kmh ESE 3.0 mph4.8 kmh 30.23 in1023.7 mb - 0.00 in0.0 mm 0.00 in0.0 mm
10:40 AM 60.8°F16.0°C 48.6°F9.2°C 64% 1.2 mph ESE1.9 kmh ESE 5.0 mph8.0 kmh 30.24 in1024.0 mb - 0.00 in0.0 mm 0.00 in0.0 mm
10:50 AM 61.5°F16.4°C 49.6°F9.8°C 65% 4.2 mph ESE6.8 kmh ESE 5.0 mph8.0 kmh 30.24 in1024.0 mb - 0.00 in0.0 mm 0.00 in0.0 mm
11:00 AM 60.6°F15.9°C 48.7°F9.3°C 65% 4.2 mph ESE6.8 kmh ESE 5.0 mph8.0 kmh 30.24 in1024.0 mb - 0.00 in0.0 mm 0.00 in0.0 mm
11:10 AM 61.0°F16.1°C 49.2°F9.6°C 65% 4.7 mph ESE7.6 kmh ESE 6.0 mph9.7 kmh 30.25 in1024.4 mb - 0.00 in0.0 mm 0.00 in0.0 mm
11:20 AM 61.5°F16.4°C 49.6°F9.8°C 65% 4.8 mph ESE7.7 kmh ESE 7.0 mph11.3 kmh 30.24 in1024.0 mb - 0.00 in0.0 mm 0.00 in0.0 mm
11:30 AM 61.1°F16.2°C 49.7°F9.8°C 66% 3.9 mph ESE6.3 kmh ESE 7.0 mph11.3 kmh 30.24 in1024.0 mb - 0.00 in0.0 mm 0.00 in0.0 mm
11:40 AM 61.3°F16.3°C 49.0°F9.4°C 64% 4.4 mph ESE7.1 kmh ESE 7.0 mph11.3 kmh 30.24 in1024.0 mb - 0.00 in0.0 mm 0.00 in0.0 mm
11:50 AM 61.3°F16.3°C 49.0°F9.4°C 64% 4.4 mph ESE7.1 kmh ESE 6.0 mph9.7 kmh 30.24 in1024.0 mb - 0.00 in0.0 mm 0.00 in0.0 mm
12:00 PM 61.6°F16.4°C 49.7°F9.8°C 65% 3.5 mph ESE5.6 kmh ESE 9.0 mph14.5 kmh 30.23 in1023.7 mb - 0.00 in0.0 mm 0.00 in0.0 mm
12:10 PM 61.7°F16.5°C 49.4°F9.7°C 64% 5.4 mph ESE8.7 kmh ESE 9.0 mph14.5 kmh 30.23 in1023.7 mb - 0.00 in0.0 mm 0.00 in0.0 mm
12:20 PM 62.1°F16.7°C 49.4°F9.7°C 63% 6.2 mph SE10.0 kmh SE 10.0 mph16.1 kmh 30.22 in1023.4 mb - 0.00 in0.0 mm 0.00 in0.0 mm
12:30 PM 61.5°F16.4°C 49.6°F9.8°C 65% 3.6 mph SE5.8 kmh SE 5.0 mph8.0 kmh 30.22 in1023.4 mb - 0.00 in0.0 mm 0.00 in0.0 mm
12:40 PM 61.3°F16.3°C 49.4°F9.7°C 65% 5.4 mph SE8.7 kmh SE 7.0 mph11.3 kmh 30.21 in1023.0 mb - 0.00 in0.0 mm 0.00 in0.0 mm
12:50 PM 61.2°F16.2°C 49.4°F9.7°C 65% 4.8 mph SE7.7 kmh SE 6.0 mph9.7 kmh 30.21 in1023.0 mb - 0.00 in0.0 mm 0.00 in0.0 mm
01:00 PM 62.4°F16.9°C 50.4°F10.2°C 65% 4.0 mph SE6.4 kmh SE 6.0 mph9.7 kmh 30.21 in1023.0 mb - 0.00 in0.0 mm 0.00 in0.0 mm
01:10 PM 62.8°F17.1°C 50.0°F10.0°C 63% 4.6 mph SE7.4 kmh SE 9.0 mph14.5 kmh 30.20 in1022.7 mb - 0.00 in0.0 mm 0.00 in0.0 mm
01:20 PM 62.0°F16.7°C 50.1°F10.1°C 65% 5.8 mph SE9.3 kmh SE 9.0 mph14.5 kmh 30.20 in1022.7 mb - 0.00 in0.0 mm 0.00 in0.0 mm
01:30 PM 61.7°F16.5°C 49.8°F9.9°C 65% 5.1 mph SE8.2 kmh SE 9.0 mph14.5 kmh 30.19 in1022.4 mb - 0.00 in0.0 mm 0.00 in0.0 mm
01:40 PM 62.2°F16.8°C 49.0°F9.4°C 62% 5.0 mph SE8.0 kmh SE 5.0 mph8.0 kmh 30.19 in1022.4 mb - 0.00 in0.0 mm 0.00 in0.0 mm
01:50 PM 61.3°F16.3°C 49.4°F9.7°C 65% 6.1 mph SE9.8 kmh SE 11.0 mph17.7 kmh 30.19 in1022.4 mb - 0.00 in0.0 mm 0.00 in0.0 mm
02:00 PM 62.4°F16.9°C 49.6°F9.8°C 63% 7.7 mph SE12.4 kmh SE 10.0 mph16.1 kmh 30.18 in1022.0 mb - 0.00 in0.0 mm 0.00 in0.0 mm
02:10 PM 61.8°F16.6°C 50.0°F10.0°C 65% 5.3 mph SE8.5 kmh SE 9.0 mph14.5 kmh 30.18 in1022.0 mb - 0.00 in0.0 mm 0.00 in0.0 mm
02:20 PM 62.6°F17.0°C 48.9°F9.4°C 61% 4.8 mph SE7.7 kmh SE 7.0 mph11.3 kmh 30.18 in1022.0 mb - 0.00 in0.0 mm 0.00 in0.0 mm
02:30 PM 62.9°F17.2°C 48.8°F9.3°C 60% 5.9 mph SE9.5 kmh SE 7.0 mph11.3 kmh 30.18 in1022.0 mb - 0.00 in0.0 mm 0.00 in0.0 mm
02:40 PM 63.4°F17.4°C 50.5°F10.3°C 63% 5.7 mph SE9.2 kmh SE 12.0 mph19.3 kmh 30.18 in1022.0 mb - 0.00 in0.0 mm 0.00 in0.0 mm
02:50 PM 63.0°F17.2°C 49.7°F9.8°C 62% 7.8 mph SE12.6 kmh SE 11.0 mph17.7 kmh 30.17 in1021.7 mb - 0.00 in0.0 mm 0.00 in0.0 mm
03:00 PM 62.1°F16.7°C 48.0°F8.9°C 60% 4.7 mph SE7.6 kmh SE 5.0 mph8.0 kmh 30.17 in1021.7 mb - 0.00 in0.0 mm 0.00 in0.0 mm
03:10 PM 62.3°F16.8°C 49.9°F9.9°C 64% 6.3 mph SE10.1 kmh SE 9.0 mph14.5 kmh 30.17 in1021.7 mb - 0.00 in0.0 mm 0.00 in0.0 mm
03:20 PM 62.7°F17.1°C 49.5°F9.7°C 62% 5.0 mph SE8.0 kmh SE 9.0 mph14.5 kmh 30.17 in1021.7 mb - 0.00 in0.0 mm 0.00 in0.0 mm
03:30 PM 62.8°F17.1°C 50.0°F10.0°C 63% 6.2 mph SE10.0 kmh SE 10.0 mph16.1 kmh 30.17 in1021.7 mb - 0.00 in0.0 mm 0.00 in0.0 mm
03:40 PM 62.8°F17.1°C 50.4°F10.2°C 64% 5.1 mph SE8.2 kmh SE 6.0 mph9.7 kmh 30.18 in1022.0 mb - 0.00 in0.0 mm 0.00 in0.0 mm
03:50 PM 62.3°F16.8°C 50.0°F10.0°C 64% 5.3 mph SE8.5 kmh SE 7.0 mph11.3 kmh 30.18 in1022.0 mb - 0.00 in0.0 mm 0.00 in0.0 mm
04:00 PM 62.7°F17.1°C 50.3°F10.2°C 64% 4.7 mph SE7.6 kmh SE 6.0 mph9.7 kmh 30.18 in1022.0 mb - 0.00 in0.0 mm 0.00 in0.0 mm
04:10 PM 62.3°F16.8°C 49.9°F9.9°C 64% 2.4 mph SE3.9 kmh SE 4.0 mph6.4 kmh 30.18 in1022.0 mb - 0.00 in0.0 mm 0.00 in0.0 mm
04:20 PM 62.3°F16.8°C 48.2°F9.0°C 60% 2.9 mph SE4.7 kmh SE 9.0 mph14.5 kmh 30.18 in1022.0 mb - 0.00 in0.0 mm 0.00 in0.0 mm
04:30 PM 62.0°F16.7°C 50.1°F10.1°C 65% 4.3 mph SE6.9 kmh SE 6.0 mph9.7 kmh 30.19 in1022.4 mb - 0.00 in0.0 mm 0.00 in0.0 mm
04:40 PM 61.8°F16.6°C 49.1°F9.5°C 63% 4.4 mph SE7.1 kmh SE 5.0 mph8.0 kmh 30.19 in1022.4 mb - 0.00 in0.0 mm 0.00 in0.0 mm
04:50 PM 61.0°F16.1°C 49.5°F9.7°C 66% 5.1 mph SE8.2 kmh SE 7.0 mph11.3 kmh 30.18 in1022.0 mb - 0.00 in0.0 mm 0.00 in0.0 mm
05:00 PM 61.0°F16.1°C 49.1°F9.5°C 65% 5.3 mph SE8.5 kmh SE 7.0 mph11.3 kmh 30.18 in1022.0 mb - 0.00 in0.0 mm 0.00 in0.0 mm
05:10 PM 61.1°F16.2°C 49.2°F9.6°C 65% 5.1 mph SE8.2 kmh SE 9.0 mph14.5 kmh 30.18 in1022.0 mb - 0.00 in0.0 mm 0.00 in0.0 mm
05:20 PM 61.3°F16.3°C 49.8°F9.9°C 66% 4.5 mph SE7.2 kmh SE 7.0 mph11.3 kmh 30.18 in1022.0 mb - 0.00 in0.0 mm 0.00 in0.0 mm
05:30 PM 61.5°F16.4°C 50.0°F10.0°C 66% 4.1 mph SE6.6 kmh SE 5.0 mph8.0 kmh 30.18 in1022.0 mb - 0.00 in0.0 mm 0.00 in0.0 mm
05:40 PM 61.5°F16.4°C 49.6°F9.8°C 65% 4.8 mph SE7.7 kmh SE 8.0 mph12.9 kmh 30.19 in1022.4 mb - 0.00 in0.0 mm 0.00 in0.0 mm
05:50 PM 61.3°F16.3°C 49.8°F9.9°C 66% 4.7 mph SE7.6 kmh SE 6.0 mph9.7 kmh 30.19 in1022.4 mb - 0.00 in0.0 mm 0.00 in0.0 mm
06:00 PM 61.0°F16.1°C 49.5°F9.7°C 66% 3.4 mph SE5.5 kmh SE 4.0 mph6.4 kmh 30.19 in1022.4 mb - 0.00 in0.0 mm 0.00 in0.0 mm
06:10 PM 60.8°F16.0°C 49.4°F9.7°C 66% 2.2 mph SE3.5 kmh SE 4.0 mph6.4 kmh 30.19 in1022.4 mb - 0.00 in0.0 mm 0.00 in0.0 mm
06:20 PM 60.7°F15.9°C 49.3°F9.6°C 66% 2.6 mph SE4.2 kmh SE 4.0 mph6.4 kmh 30.20 in1022.7 mb - 0.00 in0.0 mm 0.00 in0.0 mm
06:30 PM 60.5°F15.8°C 49.1°F9.5°C 66% Calm Calm -- 30.20 in1022.7 mb - 0.00 in0.0 mm 0.00 in0.0 mm
06:40 PM 60.5°F15.8°C 49.5°F9.7°C 67% Calm Calm -- 30.21 in1023.0 mb - 0.00 in0.0 mm 0.00 in0.0 mm
06:50 PM 60.1°F15.6°C 49.1°F9.5°C 67% 0.7 mph SE1.1 kmh SE 2.0 mph3.2 kmh 30.21 in1023.0 mb - 0.00 in0.0 mm 0.00 in0.0 mm
07:00 PM 59.2°F15.1°C 45.3°F7.4°C 60% 3.4 mph SE5.5 kmh SE 5.0 mph8.0 kmh 30.21 in1023.0 mb - 0.00 in0.0 mm 0.00 in0.0 mm
07:10 PM 58.6°F14.8°C 45.2°F7.3°C 61% 4.5 mph SE7.2 kmh SE 5.0 mph8.0 kmh 30.21 in1023.0 mb - 0.00 in0.0 mm 0.00 in0.0 mm
07:20 PM 58.0°F14.4°C 44.2°F6.8°C 60% 5.7 mph E9.2 kmh E 9.0 mph14.5 kmh 30.22 in1023.4 mb - 0.00 in0.0 mm 0.00 in0.0 mm
07:30 PM 57.9°F14.4°C 44.5°F6.9°C 61% 8.0 mph NE12.9 kmh NE 11.0 mph17.7 kmh 30.22 in1023.4 mb - 0.00 in0.0 mm 0.00 in0.0 mm
07:40 PM 57.9°F14.4°C 44.6°F7.0°C 61% 6.2 mph NE10.0 kmh NE 9.0 mph14.5 kmh 30.22 in1023.4 mb - 0.00 in0.0 mm 0.00 in0.0 mm
07:50 PM 57.7°F14.3°C 44.8°F7.1°C 62% 5.0 mph NE8.0 kmh NE 7.0 mph11.3 kmh 30.22 in1023.4 mb - 0.00 in0.0 mm 0.00 in0.0 mm
08:00 PM 57.6°F14.2°C 44.7°F7.1°C 62% 4.3 mph NE6.9 kmh NE 5.0 mph8.0 kmh 30.22 in1023.4 mb - 0.00 in0.0 mm 0.00 in0.0 mm
08:10 PM 57.6°F14.2°C 44.7°F7.1°C 62% 2.9 mph NE4.7 kmh NE 4.0 mph6.4 kmh 30.22 in1023.4 mb - 0.00 in0.0 mm 0.00 in0.0 mm
08:20 PM 57.4°F14.1°C 44.9°F7.2°C 63% 1.7 mph NE2.7 kmh NE 3.0 mph4.8 kmh 30.23 in1023.7 mb - 0.00 in0.0 mm 0.00 in0.0 mm
08:30 PM 57.2°F14.0°C 44.7°F7.1°C 63% 2.6 mph NE4.2 kmh NE 5.0 mph8.0 kmh 30.23 in1023.7 mb - 0.00 in0.0 mm 0.00 in0.0 mm
08:40 PM 57.6°F14.2°C 44.2°F6.8°C 61% 3.7 mph NE6.0 kmh NE 5.0 mph8.0 kmh 30.23 in1023.7 mb - 0.00 in0.0 mm 0.00 in0.0 mm
08:50 PM 57.7°F14.3°C 44.8°F7.1°C 62% 0.8 mph NE1.3 kmh NE 2.0 mph3.2 kmh 30.23 in1023.7 mb - 0.00 in0.0 mm 0.00 in0.0 mm
09:00 PM 57.5°F14.2°C 44.6°F7.0°C 62% 1.6 mph NE2.6 kmh NE 3.0 mph4.8 kmh 30.23 in1023.7 mb - 0.00 in0.0 mm 0.00 in0.0 mm
09:10 PM 57.0°F13.9°C 44.9°F7.2°C 64% 3.1 mph NE5.0 kmh NE 5.0 mph8.0 kmh 30.23 in1023.7 mb - 0.00 in0.0 mm 0.00 in0.0 mm
09:20 PM 57.3°F14.1°C 44.4°F6.9°C 62% 4.0 mph NE6.4 kmh NE 6.0 mph9.7 kmh 30.23 in1023.7 mb - 0.00 in0.0 mm 0.00 in0.0 mm
09:30 PM 57.0°F13.9°C 44.1°F6.7°C 62% 2.7 mph NE4.3 kmh NE 4.0 mph6.4 kmh 30.23 in1023.7 mb - 0.00 in0.0 mm 0.00 in0.0 mm
09:40 PM 56.8°F13.8°C 43.5°F6.4°C 61% 3.4 mph NE5.5 kmh NE 5.0 mph8.0 kmh 30.24 in1024.0 mb - 0.00 in0.0 mm 0.00 in0.0 mm
09:50 PM 57.2°F14.0°C 43.4°F6.3°C 60% 2.7 mph NE4.3 kmh NE 3.0 mph4.8 kmh 30.24 in1024.0 mb - 0.00 in0.0 mm 0.00 in0.0 mm
10:00 PM 57.3°F14.1°C 43.5°F6.4°C 60% 0.4 mph NE0.6 kmh NE 1.0 mph1.6 kmh 30.24 in1024.0 mb - 0.00 in0.0 mm 0.00 in0.0 mm
10:10 PM 57.1°F13.9°C 43.8°F6.6°C 61% Calm Calm -- 30.24 in1024.0 mb - 0.00 in0.0 mm 0.00 in0.0 mm
10:20 PM 57.0°F13.9°C 43.3°F6.3°C 60% 0.4 mph NE0.6 kmh NE -- 30.24 in1024.0 mb - 0.00 in0.0 mm 0.00 in0.0 mm
10:30 PM 57.2°F14.0°C 43.4°F6.3°C 60% 1.3 mph NE2.1 kmh NE 3.0 mph4.8 kmh 30.24 in1024.0 mb - 0.00 in0.0 mm 0.00 in0.0 mm
10:40 PM 57.5°F14.2°C 43.3°F6.3°C 59% 2.8 mph NE4.5 kmh NE 4.0 mph6.4 kmh 30.24 in1024.0 mb - 0.00 in0.0 mm 0.00 in0.0 mm
10:50 PM 57.9°F14.4°C 43.6°F6.4°C 59% 1.6 mph NE2.6 kmh NE 3.0 mph4.8 kmh 30.24 in1024.0 mb - 0.00 in0.0 mm 0.00 in0.0 mm
11:00 PM 57.8°F14.3°C 43.1°F6.2°C 58% 4.2 mph NE6.8 kmh NE 6.0 mph9.7 kmh 30.24 in1024.0 mb - 0.00 in0.0 mm 0.00 in0.0 mm
11:10 PM 58.1°F14.5°C 43.4°F6.3°C 58% Calm Calm -- 30.25 in1024.4 mb - 0.00 in0.0 mm 0.00 in0.0 mm
11:20 PM 58.1°F14.5°C 43.8°F6.6°C 59% 0.3 mph NE0.5 kmh NE 3.0 mph4.8 kmh 30.25 in1024.4 mb - 0.00 in0.0 mm 0.00 in0.0 mm
11:30 PM 58.1°F14.5°C 43.8°F6.6°C 59% 0.7 mph NE1.1 kmh NE 3.0 mph4.8 kmh 30.25 in1024.4 mb - 0.00 in0.0 mm 0.00 in0.0 mm
11:40 PM 58.0°F14.4°C 43.3°F6.3°C 58% 3.5 mph NE5.6 kmh NE 6.0 mph9.7 kmh 30.25 in1024.4 mb - 0.00 in0.0 mm 0.00 in0.0 mm
11:50 PM 58.0°F14.4°C 43.7°F6.5°C 59% 0.6 mph NE1.0 kmh NE 3.0 mph4.8 kmh 30.25 in1024.4 mb - 0.00 in0.0 mm 0.00 in0.0 mm